createdAt,value
2023-11-23T00:01:09.416Z,94746.20
2023-11-23T00:03:47.698Z,94736.40
2023-11-23T00:06:37.945Z,94734.00
2023-11-23T00:09:19.933Z,94725.20
2023-11-23T00:12:02.647Z,94724.60
2023-11-23T00:14:35.622Z,94719.80
2023-11-23T00:17:05.297Z,94725.20
2023-11-23T00:19:38.276Z,94730.60
2023-11-23T00:22:20.081Z,94727.20
2023-11-23T00:25:03.738Z,94723.20
2023-11-23T00:27:43.166Z,94725.20
2023-11-23T00:30:27.129Z,94729.20
2023-11-23T00:33:10.100Z,94724.00
2023-11-23T00:35:48.361Z,94728.00
2023-11-23T00:38:24.582Z,94723.20
2023-11-23T00:41:20.648Z,94715.60
2023-11-23T00:43:59.604Z,94717.20
2023-11-23T00:46:29.041Z,94704.00
2023-11-23T00:48:56.947Z,94696.40
2023-11-23T00:51:26.918Z,94703.40
2023-11-23T00:56:48.543Z,94698.20
2023-11-23T00:59:16.376Z,94692.80
2023-11-23T01:01:47.979Z,94690.40
2023-11-23T01:04:34.124Z,94676.00
2023-11-23T01:07:06.058Z,94674.40
2023-11-23T01:09:47.747Z,94678.80
2023-11-23T01:12:28.780Z,94677.20
2023-11-23T01:15:05.148Z,94679.80
2023-11-23T01:17:35.779Z,94680.60
2023-11-23T01:20:28.210Z,94681.00
2023-11-23T01:23:00.860Z,94665.20
2023-11-23T01:25:39.202Z,94659.00
2023-11-23T01:28:20.824Z,94656.20
2023-11-23T01:31:08.629Z,94650.40
2023-11-23T01:34:02.093Z,94655.00
2023-11-23T01:36:43.610Z,94656.00
2023-11-23T01:39:11.245Z,94658.20
2023-11-23T01:41:39.862Z,94653.00
2023-11-23T01:44:20.463Z,94655.20
2023-11-23T01:47:04.262Z,94659.40
2023-11-23T01:49:37.847Z,94653.80
2023-11-23T01:52:05.771Z,94645.20
2023-11-23T01:54:40.028Z,94636.20
2023-11-23T01:57:16.474Z,94630.60
2023-11-23T01:59:54.960Z,94617.80
2023-11-23T02:02:24.795Z,94609.00
2023-11-23T02:05:11.396Z,94597.60
2023-11-23T02:13:35.416Z,94564.80
2023-11-23T02:16:02.897Z,94564.60
2023-11-23T02:18:29.561Z,94563.20
2023-11-23T02:20:59.538Z,94571.60
2023-11-23T02:26:32.123Z,94574.80
2023-11-23T02:28:59.550Z,94573.00
2023-11-23T02:31:26.114Z,94568.00
2023-11-23T02:33:55.054Z,94569.60
2023-11-23T02:36:22.768Z,94580.20
2023-11-23T02:38:49.478Z,94587.60
2023-11-23T02:41:18.082Z,94586.00
2023-11-23T02:43:45.771Z,94590.20
2023-11-23T02:46:12.727Z,94585.40
2023-11-23T02:48:39.746Z,94586.40
2023-11-23T02:51:06.710Z,94590.00
2023-11-23T02:53:43.458Z,94589.40
2023-11-23T02:56:11.027Z,94583.60
2023-11-23T02:58:40.680Z,94580.00
2023-11-23T03:01:07.149Z,94581.60
2023-11-23T03:03:33.795Z,94590.40
2023-11-23T03:06:00.409Z,94586.20
2023-11-23T03:08:28.130Z,94571.40
2023-11-23T03:10:57.258Z,94566.20
2023-11-23T03:13:25.540Z,94569.20
2023-11-23T03:15:52.293Z,94566.80
2023-11-23T03:18:18.779Z,94564.40
2023-11-23T03:20:49.457Z,94558.60
2023-11-23T03:23:24.265Z,94564.00
2023-11-23T03:25:55.177Z,94564.00
2023-11-23T03:28:22.978Z,94560.20
2023-11-23T03:30:51.404Z,94559.00
2023-11-23T03:33:18.438Z,94560.60
2023-11-23T03:35:44.965Z,94554.20
2023-11-23T03:38:13.229Z,94554.00
2023-11-23T03:40:41.839Z,94559.60
2023-11-23T03:43:08.447Z,94561.00
2023-11-23T03:45:36.182Z,94558.40
2023-11-23T03:48:04.105Z,94558.00
2023-11-23T03:50:30.725Z,94559.20
2023-11-23T03:52:57.181Z,94560.60
2023-11-23T03:55:23.654Z,94556.60
2023-11-23T03:57:50.773Z,94556.60
2023-11-23T04:00:17.387Z,94554.20
2023-11-23T04:02:44.446Z,94548.00
2023-11-23T04:05:12.713Z,94542.00
2023-11-23T04:07:39.275Z,94553.00
2023-11-23T04:10:07.709Z,94557.60
2023-11-23T04:12:34.722Z,94549.00
2023-11-23T04:15:01.670Z,94551.60
2023-11-23T04:17:28.130Z,94552.20
2023-11-23T04:19:55.629Z,94544.20
2023-11-23T04:22:25.361Z,94536.60
2023-11-23T04:24:52.957Z,94535.20
2023-11-23T04:27:20.196Z,94533.40
2023-11-23T04:29:49.806Z,94533.60
2023-11-23T04:32:16.243Z,94529.00
2023-11-23T04:34:47.295Z,94523.20
2023-11-23T04:37:14.574Z,94517.40
2023-11-23T04:39:41.149Z,94514.80
2023-11-23T04:42:08.058Z,94519.60
2023-11-23T04:44:34.429Z,94512.60
2023-11-23T04:47:00.884Z,94508.20
2023-11-23T04:49:27.365Z,94507.60
2023-11-23T04:51:54.378Z,94502.40
2023-11-23T04:54:20.902Z,94494.20
2023-11-23T04:56:55.200Z,94486.00
2023-11-23T04:59:21.871Z,94482.00
2023-11-23T05:01:48.355Z,94481.80
2023-11-23T05:04:14.814Z,94487.60
2023-11-23T05:06:41.769Z,94488.20
2023-11-23T05:09:09.076Z,94483.60
2023-11-23T05:11:38.928Z,94479.80
2023-11-23T05:14:06.625Z,94476.20
2023-11-23T05:16:33.115Z,94477.40
2023-11-23T05:19:00.901Z,94481.80
2023-11-23T05:21:27.541Z,94472.80
2023-11-23T05:23:53.941Z,94467.20
2023-11-23T05:26:20.374Z,94469.40
2023-11-23T05:28:47.777Z,94457.20
2023-11-23T05:31:14.291Z,94451.60
2023-11-23T05:33:40.867Z,94444.80
2023-11-23T05:36:10.571Z,94442.80
2023-11-23T05:38:36.956Z,94439.00
2023-11-23T05:41:07.770Z,94439.00
2023-11-23T05:43:34.084Z,94424.40
2023-11-23T05:46:01.625Z,94417.80
2023-11-23T05:48:29.979Z,94424.40
2023-11-23T05:50:59.074Z,94420.20
2023-11-23T05:53:25.533Z,94413.60
2023-11-23T05:55:53.837Z,94410.00
2023-11-23T05:58:20.263Z,94414.40
2023-11-23T06:00:50.239Z,94406.20
2023-11-23T06:03:17.619Z,94406.60
2023-11-23T06:05:44.074Z,94391.80
2023-11-23T06:08:10.372Z,94394.00
2023-11-23T06:10:37.970Z,94398.40
2023-11-23T06:13:08.502Z,94398.60
2023-11-23T06:15:35.218Z,94400.60
2023-11-23T06:18:07.669Z,94402.80
2023-11-23T06:20:40.187Z,94395.40
2023-11-23T06:23:08.783Z,94397.20
2023-11-23T06:25:35.199Z,94391.80
2023-11-23T06:28:12.187Z,94393.40
2023-11-23T06:30:44.324Z,94391.20
2023-11-23T06:33:12.088Z,94383.20
2023-11-23T06:35:38.659Z,94381.40
2023-11-23T06:38:05.238Z,94376.80
2023-11-23T06:40:31.615Z,94374.40
2023-11-23T06:42:59.048Z,94383.60
2023-11-23T06:45:26.233Z,94377.60
2023-11-23T06:47:53.394Z,94377.60
2023-11-23T06:50:21.340Z,94375.00
2023-11-23T06:52:47.701Z,94371.00
2023-11-23T06:55:18.716Z,94370.00
2023-11-23T06:57:48.841Z,94355.80
2023-11-23T07:00:23.124Z,94352.40
2023-11-23T07:02:51.287Z,94354.40
2023-11-23T07:05:19.964Z,94360.80
2023-11-23T07:07:48.079Z,94368.60
2023-11-23T07:10:16.904Z,94356.00
2023-11-23T07:12:45.099Z,94350.40
2023-11-23T07:15:12.835Z,94341.20
2023-11-23T07:17:39.254Z,94332.20
2023-11-23T07:20:05.889Z,94326.60
2023-11-23T07:22:36.427Z,94322.60
2023-11-23T07:25:03.390Z,94321.40
2023-11-23T07:27:29.917Z,94318.60
2023-11-23T07:29:56.337Z,94326.60
2023-11-23T07:32:24.072Z,94329.80
2023-11-23T07:34:51.624Z,94338.60
2023-11-23T07:37:20.181Z,94330.80
2023-11-23T07:39:47.822Z,94325.00
2023-11-23T07:42:17.235Z,94327.40
2023-11-23T07:44:44.847Z,94326.60
2023-11-23T07:47:14.272Z,94325.20
2023-11-23T07:49:41.673Z,94326.60
2023-11-23T07:52:08.109Z,94329.40
2023-11-23T07:54:34.489Z,94334.80
2023-11-23T07:57:01.108Z,94342.20
2023-11-23T07:59:28.563Z,94343.00
2023-11-23T08:01:56.212Z,94338.80
2023-11-23T08:04:24.701Z,94326.60
2023-11-23T08:06:53.066Z,94318.60
2023-11-23T08:09:20.999Z,94307.80
2023-11-23T08:11:53.516Z,94315.60
2023-11-23T08:14:19.885Z,94308.20
2023-11-23T08:16:49.520Z,94310.00
2023-11-23T08:19:18.026Z,94299.20
2023-11-23T08:21:54.285Z,94291.60
2023-11-23T08:24:21.428Z,94278.80
2023-11-23T08:26:49.960Z,94270.40
2023-11-23T08:29:20.019Z,94269.40
2023-11-23T08:31:48.938Z,94275.60
2023-11-23T08:34:17.433Z,94269.60
2023-11-23T08:36:44.424Z,94279.60
2023-11-23T08:39:15.002Z,94279.60
2023-11-23T08:41:42.019Z,94281.00
2023-11-23T08:44:11.121Z,94281.20
2023-11-23T08:46:39.045Z,94288.60
2023-11-23T08:49:11.517Z,94286.40
2023-11-23T08:51:38.356Z,94286.60
2023-11-23T08:54:09.283Z,94287.20
2023-11-23T08:56:41.306Z,94298.00
2023-11-23T08:59:08.210Z,94303.00
2023-11-23T09:01:37.068Z,94308.20
2023-11-23T09:04:05.041Z,94302.40
2023-11-23T09:06:32.847Z,94302.80
2023-11-23T09:09:01.118Z,94305.20
2023-11-23T09:11:29.750Z,94307.60
2023-11-23T09:13:56.690Z,94300.80
2023-11-23T09:16:26.061Z,94301.20
2023-11-23T09:18:56.642Z,94292.20
2023-11-23T09:21:30.871Z,94277.40
2023-11-23T09:23:59.026Z,94270.60
2023-11-23T09:26:26.458Z,94257.60
2023-11-23T09:28:52.942Z,94262.00
2023-11-23T09:31:20.381Z,94250.20
2023-11-23T09:33:47.666Z,94247.80
2023-11-23T09:36:15.089Z,94244.20
2023-11-23T09:38:42.823Z,94235.00
2023-11-23T09:41:10.073Z,94229.80
2023-11-23T09:43:36.937Z,94219.40
2023-11-23T09:46:04.256Z,94207.00
2023-11-23T09:48:30.863Z,94195.00
2023-11-23T09:51:00.835Z,94197.20
2023-11-23T09:53:27.943Z,94189.80
2023-11-23T09:55:57.222Z,94185.60
2023-11-23T09:58:25.011Z,94177.80
2023-11-23T10:00:51.772Z,94164.60
2023-11-23T10:03:20.260Z,94159.80
2023-11-23T10:05:51.541Z,94158.40
2023-11-23T10:08:21.604Z,94147.60
2023-11-23T10:10:50.426Z,94135.40
2023-11-23T10:13:17.174Z,94136.20
2023-11-23T10:15:44.872Z,94128.80
2023-11-23T10:18:12.645Z,94129.00
2023-11-23T10:20:40.673Z,94134.00
2023-11-23T10:23:07.293Z,94133.00
2023-11-23T10:25:36.220Z,94124.80
2023-11-23T10:28:06.441Z,94122.40
2023-11-23T10:30:35.733Z,94120.80
2023-11-23T10:33:05.228Z,94121.40
2023-11-23T10:35:32.464Z,94120.20
2023-11-23T10:38:00.827Z,94112.40
2023-11-23T10:40:30.680Z,94110.80
2023-11-23T10:42:57.164Z,94115.40
2023-11-23T10:45:25.766Z,94116.00
2023-11-23T10:47:52.600Z,94113.80
2023-11-23T10:50:19.442Z,94115.00
2023-11-23T10:52:45.926Z,94110.80
2023-11-23T10:55:14.026Z,94112.60
2023-11-23T10:57:40.573Z,94108.20
2023-11-23T11:00:12.358Z,94102.60
2023-11-23T11:02:39.464Z,94101.60
2023-11-23T11:05:06.789Z,94098.20
2023-11-23T11:07:33.209Z,94097.00
2023-11-23T11:09:59.851Z,94102.20
2023-11-23T11:12:26.491Z,94105.40
2023-11-23T11:14:54.600Z,94103.40
2023-11-23T11:17:22.035Z,94096.20
2023-11-23T11:19:49.465Z,94089.00
2023-11-23T11:22:16.796Z,94087.40
2023-11-23T11:24:45.624Z,94084.60
2023-11-23T11:27:13.260Z,94080.40
2023-11-23T11:29:39.624Z,94067.20
2023-11-23T11:32:06.758Z,94067.40
2023-11-23T11:34:33.238Z,94061.80
2023-11-23T11:37:00.234Z,94059.00
2023-11-23T11:39:29.607Z,94058.40
2023-11-23T11:41:59.926Z,94055.20
2023-11-23T11:44:26.781Z,94051.20
2023-11-23T11:46:53.417Z,94038.80
2023-11-23T11:49:22.451Z,94036.00
2023-11-23T11:51:49.021Z,94025.60
2023-11-23T11:54:16.939Z,94025.40
2023-11-23T11:56:44.706Z,94015.80
2023-11-23T11:59:14.683Z,94006.80
2023-11-23T12:01:41.983Z,93996.20
2023-11-23T12:04:08.945Z,93996.00
2023-11-23T12:06:35.907Z,93998.60
2023-11-23T12:09:02.899Z,93984.80
2023-11-23T12:11:32.031Z,93983.00
2023-11-23T12:14:00.011Z,93982.00
2023-11-23T12:16:26.453Z,93980.40
2023-11-23T12:18:59.408Z,93963.20
2023-11-23T12:21:25.704Z,93956.80
2023-11-23T12:23:54.273Z,93949.60
2023-11-23T12:26:21.136Z,93944.60
2023-11-23T12:28:48.073Z,93941.20
2023-11-23T12:31:14.842Z,93933.80
2023-11-23T12:33:43.646Z,93924.80
2023-11-23T12:36:10.176Z,93915.00
2023-11-23T12:38:37.045Z,93912.80
2023-11-23T12:41:04.137Z,93913.00
2023-11-23T12:43:30.511Z,93912.20
2023-11-23T12:45:56.998Z,93906.20
2023-11-23T12:48:24.001Z,93902.40
2023-11-23T12:50:50.577Z,93905.60
2023-11-23T12:53:18.840Z,93902.40
2023-11-23T12:55:45.309Z,93900.80
2023-11-23T12:58:13.018Z,93892.60
2023-11-23T13:00:39.592Z,93883.20
2023-11-23T13:03:06.183Z,93878.80
2023-11-23T13:05:33.832Z,93883.40
2023-11-23T13:08:01.047Z,93874.80
2023-11-23T13:10:28.069Z,93877.80
2023-11-23T13:12:56.939Z,93880.00
2023-11-23T13:15:25.138Z,93869.40
2023-11-23T13:17:53.875Z,93873.80
2023-11-23T13:20:22.261Z,93881.80
2023-11-23T13:22:48.919Z,93870.20
2023-11-23T13:25:17.649Z,93866.40
2023-11-23T13:27:44.112Z,93866.00
2023-11-23T13:30:10.826Z,93862.20
2023-11-23T13:32:43.993Z,93866.00
2023-11-23T13:35:11.280Z,93867.00
2023-11-23T13:37:37.817Z,93859.00
2023-11-23T13:40:05.913Z,93853.20
2023-11-23T13:42:34.481Z,93861.20
2023-11-23T13:45:01.380Z,93868.80
2023-11-23T13:47:29.140Z,93877.20
2023-11-23T13:49:55.970Z,93872.80
2023-11-23T13:52:22.667Z,93875.80
2023-11-23T13:54:49.641Z,93869.00
2023-11-23T13:57:17.917Z,93871.40
2023-11-23T13:59:44.367Z,93872.40
2023-11-23T14:02:11.379Z,93872.60
2023-11-23T14:04:37.877Z,93866.80
2023-11-23T14:07:08.646Z,93870.60
2023-11-23T14:09:35.182Z,93874.40
2023-11-23T14:12:04.321Z,93882.00
2023-11-23T14:14:30.734Z,93881.20
2023-11-23T14:16:58.763Z,93880.60
2023-11-23T14:19:26.793Z,93870.20
2023-11-23T14:21:56.246Z,93865.00
2023-11-23T14:24:22.926Z,93854.60
2023-11-23T14:26:53.678Z,93860.80
2023-11-23T14:29:21.194Z,93867.80
2023-11-23T14:31:50.384Z,93862.40
2023-11-23T14:34:17.099Z,93866.80
2023-11-23T14:36:45.074Z,93864.80
2023-11-23T14:39:16.786Z,93855.00
2023-11-23T14:41:44.993Z,93851.40
2023-11-23T14:44:11.743Z,93852.40
2023-11-23T14:46:38.146Z,93837.40
2023-11-23T14:49:09.616Z,93838.20
2023-11-23T14:51:36.347Z,93827.40
2023-11-23T14:54:10.612Z,93814.60
2023-11-23T14:56:40.050Z,93805.40
2023-11-23T14:59:06.851Z,93798.40
2023-11-23T15:01:35.852Z,93791.60
2023-11-23T15:04:07.094Z,93781.80
2023-11-23T15:06:33.577Z,93782.60
2023-11-23T15:08:59.855Z,93786.60
2023-11-23T15:11:31.804Z,93778.80
2023-11-23T15:13:58.254Z,93774.60
2023-11-23T15:16:28.463Z,93773.00
2023-11-23T15:18:57.019Z,93765.80
2023-11-23T15:21:24.664Z,93766.80
2023-11-23T15:23:52.314Z,93772.60
2023-11-23T15:26:22.524Z,93776.80
2023-11-23T15:28:49.634Z,93775.60
2023-11-23T15:31:23.334Z,93763.00
2023-11-23T15:33:50.341Z,93769.00
2023-11-23T15:36:18.347Z,93766.60
2023-11-23T15:38:44.668Z,93764.20
2023-11-23T15:41:11.585Z,93763.80
2023-11-23T15:43:38.775Z,93765.40
2023-11-23T15:46:07.771Z,93753.80
2023-11-23T15:48:34.940Z,93748.60
2023-11-23T15:51:01.351Z,93749.20
2023-11-23T15:53:29.005Z,93745.00
2023-11-23T15:55:55.374Z,93748.20
2023-11-23T15:58:22.984Z,93745.80
2023-11-23T16:00:49.424Z,93756.20
2023-11-23T16:03:16.076Z,93743.00
2023-11-23T16:05:45.253Z,93752.80
2023-11-23T16:08:11.677Z,93744.20
2023-11-23T16:10:38.763Z,93742.20
2023-11-23T16:13:11.449Z,93745.40
2023-11-23T16:15:40.589Z,93748.20
2023-11-23T16:18:07.120Z,93747.20
2023-11-23T16:20:34.042Z,93746.00
2023-11-23T16:23:01.863Z,93737.40
2023-11-23T16:25:28.445Z,93721.80
2023-11-23T16:28:01.519Z,93721.20
2023-11-23T16:30:27.930Z,93713.60
2023-11-23T16:32:56.493Z,93712.00
2023-11-23T16:35:27.319Z,93698.60
2023-11-23T16:37:53.580Z,93688.60
2023-11-23T16:40:20.338Z,93681.00
2023-11-23T16:42:47.568Z,93685.40
2023-11-23T16:45:14.190Z,93682.20
2023-11-23T16:47:41.622Z,93676.80
2023-11-23T16:50:07.902Z,93680.20
2023-11-23T16:52:35.580Z,93681.40
2023-11-23T16:55:04.727Z,93676.80
2023-11-23T16:57:34.030Z,93667.40
2023-11-23T17:00:02.262Z,93663.60
2023-11-23T17:02:31.001Z,93650.80
2023-11-23T17:05:01.625Z,93644.20
2023-11-23T17:07:28.512Z,93639.60
2023-11-23T17:09:55.228Z,93628.00
2023-11-23T17:12:26.777Z,93616.40
2023-11-23T17:14:55.732Z,93605.20
2023-11-23T17:17:26.500Z,93592.00
2023-11-23T17:19:52.884Z,93575.60
2023-11-23T17:22:20.062Z,93570.40
2023-11-23T17:24:46.396Z,93559.40
2023-11-23T17:27:15.062Z,93560.20
2023-11-23T17:29:41.536Z,93555.60
2023-11-23T17:32:09.003Z,93557.80
2023-11-23T17:34:36.240Z,93559.00
2023-11-23T17:37:05.121Z,93552.80
2023-11-23T17:39:31.609Z,93545.80
2023-11-23T17:41:58.300Z,93541.40
2023-11-23T17:44:27.212Z,93527.00
2023-11-23T17:46:54.324Z,93516.80
2023-11-23T17:49:21.226Z,93512.20
2023-11-23T17:51:47.898Z,93504.00
2023-11-23T17:54:15.375Z,93498.80
2023-11-23T17:56:44.635Z,93489.40
2023-11-23T17:59:25.464Z,93475.80
2023-11-23T18:02:00.545Z,93459.80
2023-11-23T18:04:27.588Z,93454.20
2023-11-23T18:06:54.860Z,93442.60
2023-11-23T18:09:21.786Z,93434.80
2023-11-23T18:11:48.119Z,93430.00
2023-11-23T18:14:17.202Z,93424.60
2023-11-23T18:16:44.455Z,93426.80
2023-11-23T18:19:19.840Z,93423.20
2023-11-23T18:21:46.165Z,93428.80
2023-11-23T18:24:16.090Z,93418.40
2023-11-23T18:26:43.073Z,93414.60
2023-11-23T18:29:10.721Z,93402.00
2023-11-23T18:31:39.539Z,93402.20
2023-11-23T18:34:09.961Z,93398.60
2023-11-23T18:36:36.341Z,93388.40
2023-11-23T18:39:11.947Z,93390.20
2023-11-23T18:41:48.588Z,93380.60
2023-11-23T18:44:15.477Z,93375.00
2023-11-23T18:46:45.095Z,93367.60
2023-11-23T18:49:12.067Z,93366.20
2023-11-23T18:51:41.003Z,93372.80
2023-11-23T18:54:08.292Z,93367.60
2023-11-23T18:56:35.770Z,93359.00
2023-11-23T18:59:03.959Z,93354.60
2023-11-23T19:01:30.473Z,93366.00
2023-11-23T19:03:57.874Z,93367.20
2023-11-23T19:06:24.546Z,93369.80
2023-11-23T19:08:51.380Z,93370.60
2023-11-23T19:11:18.596Z,93367.40
2023-11-23T19:13:45.106Z,93363.20
2023-11-23T19:16:14.255Z,93355.00
2023-11-23T19:18:42.597Z,93347.60
2023-11-23T19:21:09.237Z,93337.60
2023-11-23T19:23:36.490Z,93328.40
2023-11-23T19:26:05.989Z,93313.80
2023-11-23T19:28:35.034Z,93300.60
2023-11-23T19:31:04.280Z,93296.00
2023-11-23T19:33:35.921Z,93292.20
2023-11-23T19:36:03.161Z,93285.40
2023-11-23T19:38:29.785Z,93271.40
2023-11-23T19:41:00.576Z,93273.00
2023-11-23T19:43:30.126Z,93266.60
2023-11-23T19:45:56.912Z,93253.60
2023-11-23T19:48:23.739Z,93243.40
2023-11-23T19:50:50.467Z,93230.20
2023-11-23T19:53:17.156Z,93215.40
2023-11-23T19:55:45.556Z,93205.60
2023-11-23T19:58:11.994Z,93199.00
2023-11-23T20:00:42.774Z,93185.00
2023-11-23T20:03:09.312Z,93171.60
2023-11-23T20:05:38.664Z,93159.00
2023-11-23T20:08:08.968Z,93156.60
2023-11-23T20:10:37.745Z,93133.40
2023-11-23T20:13:05.456Z,93130.80
2023-11-23T20:15:34.808Z,93130.80
2023-11-23T20:18:01.201Z,93117.60
2023-11-23T20:20:29.177Z,93108.60
2023-11-23T20:23:03.510Z,93108.20
2023-11-23T20:25:29.969Z,93101.60
2023-11-23T20:27:56.487Z,93081.40
2023-11-23T20:30:22.873Z,93079.20
2023-11-23T20:32:49.789Z,93077.40
2023-11-23T20:35:17.099Z,93074.60
2023-11-23T20:37:43.546Z,93078.00
2023-11-23T20:40:10.271Z,93063.40
2023-11-23T20:42:36.708Z,93056.00
2023-11-23T20:45:03.603Z,93057.00
2023-11-23T20:47:30.680Z,93051.60
2023-11-23T20:50:00.368Z,93054.60
2023-11-23T20:52:26.809Z,93044.00
2023-11-23T20:54:56.964Z,93042.80
2023-11-23T20:57:27.858Z,93039.60
2023-11-23T20:59:54.549Z,93033.00
2023-11-23T21:02:21.502Z,93020.20
2023-11-23T21:04:48.945Z,93011.20
2023-11-23T21:07:16.595Z,93006.40
2023-11-23T21:09:48.471Z,93006.60
2023-11-23T21:12:24.591Z,92998.40
2023-11-23T21:14:58.870Z,92988.80
2023-11-23T21:17:27.706Z,92971.80
2023-11-23T21:19:54.068Z,92971.60
2023-11-23T21:22:20.791Z,92973.40
2023-11-23T21:24:47.367Z,92972.60
2023-11-23T21:27:13.805Z,92972.20
2023-11-23T21:29:42.646Z,92960.20
2023-11-23T21:32:09.085Z,92947.20
2023-11-23T21:34:35.790Z,92952.00
2023-11-23T21:37:05.982Z,92941.80
2023-11-23T21:39:32.778Z,92947.00
2023-11-23T21:41:59.174Z,92948.00
2023-11-23T21:44:26.159Z,92943.20
2023-11-23T21:46:56.197Z,92944.60
2023-11-23T21:49:34.290Z,92941.40
2023-11-23T21:52:05.468Z,92934.20
2023-11-23T21:54:46.917Z,92924.20
2023-11-23T21:57:22.610Z,92918.40
2023-11-23T21:59:52.021Z,92908.40
2023-11-23T22:05:14.769Z,92894.20
2023-11-23T22:07:49.574Z,92885.80
2023-11-23T22:10:34.830Z,92876.40
2023-11-23T22:13:07.462Z,92863.00
2023-11-23T22:15:50.375Z,92857.80
2023-11-23T22:18:18.288Z,92848.00
2023-11-23T22:20:56.358Z,92831.40
2023-11-23T22:23:32.359Z,92830.60
2023-11-23T22:25:59.094Z,92831.60
2023-11-23T22:28:25.452Z,92828.00
2023-11-23T22:30:56.714Z,92825.60
2023-11-23T22:33:23.436Z,92827.40
2023-11-23T22:35:50.146Z,92819.00
2023-11-23T22:38:19.832Z,92815.80
2023-11-23T22:40:56.580Z,92808.80
2023-11-23T22:43:44.169Z,92807.80
2023-11-23T22:46:10.814Z,92803.00
2023-11-23T22:48:37.421Z,92797.80
2023-11-23T22:51:03.674Z,92794.00
2023-11-23T22:53:35.993Z,92784.80
2023-11-23T22:56:22.623Z,92769.00
2023-11-23T22:58:49.608Z,92771.00
2023-11-23T23:01:19.323Z,92766.20
2023-11-23T23:03:46.625Z,92759.80
2023-11-23T23:06:15.477Z,92745.20
2023-11-23T23:08:42.609Z,92737.40
2023-11-23T23:11:14.977Z,92729.20
2023-11-23T23:13:44.529Z,92720.60
2023-11-23T23:16:14.789Z,92717.20
2023-11-23T23:21:44.995Z,92694.00
2023-11-23T23:27:23.456Z,92696.20
2023-11-23T23:29:49.950Z,92699.00
2023-11-23T23:32:16.910Z,92698.20
2023-11-23T23:34:48.236Z,92699.00
2023-11-23T23:37:22.251Z,92694.80
2023-11-23T23:39:48.713Z,92693.60
2023-11-23T23:42:15.247Z,92697.80
2023-11-23T23:44:42.587Z,92690.00
2023-11-23T23:47:09.419Z,92686.00
2023-11-23T23:49:36.707Z,92692.20
2023-11-23T23:52:03.562Z,92688.60
2023-11-23T23:54:29.956Z,92685.80
2023-11-23T23:56:56.477Z,92685.20
2023-11-23T23:59:23.182Z,92685.20
